Boyne City, MI

11:23 AM EST on February 20, 2017 (GMT -0500)
Boyne Mountain Resort | | Change Station
Active Advisory: Small Craft Advisory

Elev 724 ft 45.16 °N, 84.93 °W | Updated 7 seconds ago

Mostly Cloudy
Mostly Cloudy
43.5 °F
Feels Like 40 °F
N
6.0
Wind Variable Wind from SW

Today
High -- | Low -- °F
--% Chance of Precip.
Yesterday
High -- | Low -- °F
Precip. -- in
Pressure 30.25 in
Visibility 10.0 miles
Clouds Clear
Windchill 40 °F
Dew Point 34 °F
Humidity 69%
Rainfall 0.00 in
Snow Depth Not available.
7:32 AM 6:15 PM
Waning Crescent, 33% visible
METAR KCVX 201614Z AUTO 10012KT 10SM CLR 05/M01 A3025 RMK AO2 T00471006
Pressure 30.25 in
Visibility 10.0 miles
Clouds Clear
Windchill 40 °F
Dew Point 34 °F
Humidity 69%
Rainfall 0.00 in
Snow Depth Not available.
7:32 AM 6:15 PM
Waning Crescent, 33% visible
METAR KCVX 201614Z AUTO 10012KT 10SM CLR 05/M01 A3025 RMK AO2 T00471006

Get Your Daily Forecast Email!

Thanks for signing up!

Be on the lookout for a verification email in your inbox.

You'll start receiving the daily forecast at 8 AM.

×

10-Day Weather Forecast

Almanac

Astronomy

Feb. 20, 2017 Rise Set
Actual Time
Civil Twilight
Nautical Twilight
Astronomical Twilight
Moon
Length of Visible Light
Length of Day
Tomorrow will be .
, % of the Moon is Illuminated

Today's Extremes

State Highs State Lows

Community

WunderPhotos

Upload Photos

1,962,540 photos uploaded!

WunderBlog® & News

Nearby

Air Quality

  Air Quality AQ Index Pollutant
Not available.

Snow Depth

Station Depth Elevation

Earthquake Activity

City Distance Mag. Time & Date
Minimum magnitude displayed is 2.5.

Coastal Water Temperatures

Place Temperature

Stations

Nearby Weather Stations

Station Location Temp. Windchill Dew Point Humidity Wind Precip. Elev Updated Type
                   

Watches & Warnings

Small Craft Advisory
Issued: 10:50 AM EST Feb. 20, 2017 – National Weather Service

... Small Craft Advisory remains in effect until 7 am EST
Tuesday...

A Small Craft Advisory remains in effect until 7 am EST Tuesday.

* Please see the latest marine forecasts for more detailed
information.

Precautionary/preparedness actions

Inexperienced mariners... especially those operating smaller
vessels should avoid navigating in these conditions.